sensor_id;sensor_type;location;lat;lon;timestamp;P1;durP1;ratioP1;P2;durP2;ratioP2
60436;SDS011;46289;51.992;4.498;2023-02-21T00:01:33;31.60;;;14.35;;
60436;SDS011;46289;51.992;4.498;2023-02-21T00:03:51;35.90;;;13.93;;
60436;SDS011;46289;51.992;4.498;2023-02-21T00:06:08;35.17;;;14.23;;
60436;SDS011;46289;51.992;4.498;2023-02-21T00:08:26;29.70;;;13.77;;
60436;SDS011;46289;51.992;4.498;2023-02-21T00:10:43;31.10;;;13.98;;
60436;SDS011;46289;51.992;4.498;2023-02-21T00:13:03;34.15;;;13.27;;
60436;SDS011;46289;51.992;4.498;2023-02-21T00:15:21;34.47;;;12.77;;
60436;SDS011;46289;51.992;4.498;2023-02-21T00:17:38;32.08;;;13.77;;
60436;SDS011;46289;51.992;4.498;2023-02-21T00:19:56;33.97;;;13.02;;
60436;SDS011;46289;51.992;4.498;2023-02-21T00:22:13;35.78;;;13.25;;
60436;SDS011;46289;51.992;4.498;2023-02-21T00:24:30;36.03;;;13.25;;
60436;SDS011;46289;51.992;4.498;2023-02-21T00:26:48;29.15;;;13.48;;
60436;SDS011;46289;51.992;4.498;2023-02-21T00:29:11;33.22;;;13.52;;
60436;SDS011;46289;51.992;4.498;2023-02-21T00:31:28;32.78;;;14.00;;
60436;SDS011;46289;51.992;4.498;2023-02-21T00:33:48;37.72;;;13.40;;
60436;SDS011;46289;51.992;4.498;2023-02-21T00:36:06;36.45;;;13.95;;
60436;SDS011;46289;51.992;4.498;2023-02-21T00:38:24;36.03;;;14.45;;
60436;SDS011;46289;51.992;4.498;2023-02-21T00:40:41;35.05;;;13.68;;
60436;SDS011;46289;51.992;4.498;2023-02-21T00:42:59;36.78;;;13.25;;
60436;SDS011;46289;51.992;4.498;2023-02-21T00:45:19;37.58;;;14.40;;
60436;SDS011;46289;51.992;4.498;2023-02-21T00:47:37;40.53;;;15.25;;
60436;SDS011;46289;51.992;4.498;2023-02-21T00:49:55;37.90;;;15.30;;
60436;SDS011;46289;51.992;4.498;2023-02-21T00:52:13;43.00;;;15.73;;
60436;SDS011;46289;51.992;4.498;2023-02-21T00:54:30;38.13;;;14.95;;
60436;SDS011;46289;51.992;4.498;2023-02-21T00:56:52;42.75;;;15.48;;
60436;SDS011;46289;51.992;4.498;2023-02-21T00:59:09;42.80;;;16.33;;
60436;SDS011;46289;51.992;4.498;2023-02-21T01:01:29;46.78;;;15.65;;
60436;SDS011;46289;51.992;4.498;2023-02-21T01:03:47;42.70;;;15.55;;
60436;SDS011;46289;51.992;4.498;2023-02-21T01:06:07;41.30;;;18.05;;
60436;SDS011;46289;51.992;4.498;2023-02-21T01:08:25;40.13;;;16.73;;
60436;SDS011;46289;51.992;4.498;2023-02-21T01:10:42;48.42;;;17.02;;
60436;SDS011;46289;51.992;4.498;2023-02-21T01:13:00;46.75;;;16.92;;
60436;SDS011;46289;51.992;4.498;2023-02-21T01:15:17;45.40;;;17.25;;
60436;SDS011;46289;51.992;4.498;2023-02-21T01:17:37;47.63;;;17.88;;
60436;SDS011;46289;51.992;4.498;2023-02-21T01:19:55;47.13;;;18.02;;
60436;SDS011;46289;51.992;4.498;2023-02-21T01:22:12;44.80;;;17.15;;
60436;SDS011;46289;51.992;4.498;2023-02-21T01:24:32;44.92;;;17.02;;
60436;SDS011;46289;51.992;4.498;2023-02-21T01:26:49;43.58;;;17.98;;
60436;SDS011;46289;51.992;4.498;2023-02-21T01:29:10;36.60;;;15.82;;
60436;SDS011;46289;51.992;4.498;2023-02-21T01:31:27;46.25;;;17.88;;
60436;SDS011;46289;51.992;4.498;2023-02-21T01:33:49;46.60;;;17.65;;
60436;SDS011;46289;51.992;4.498;2023-02-21T01:36:07;50.60;;;18.48;;
60436;SDS011;46289;51.992;4.498;2023-02-21T01:38:26;43.08;;;18.00;;
60436;SDS011;46289;51.992;4.498;2023-02-21T01:40:43;49.03;;;18.63;;
60436;SDS011;46289;51.992;4.498;2023-02-21T01:43:00;48.60;;;19.17;;
60436;SDS011;46289;51.992;4.498;2023-02-21T01:48:06;48.15;;;19.65;;
60436;SDS011;46289;51.992;4.498;2023-02-21T01:50:30;46.47;;;17.60;;
60436;SDS011;46289;51.992;4.498;2023-02-21T01:52:48;40.78;;;16.10;;
60436;SDS011;46289;51.992;4.498;2023-02-21T01:55:06;45.63;;;18.02;;
60436;SDS011;46289;51.992;4.498;2023-02-21T01:57:24;46.70;;;18.20;;
60436;SDS011;46289;51.992;4.498;2023-02-21T01:59:47;44.05;;;17.55;;
60436;SDS011;46289;51.992;4.498;2023-02-21T02:02:08;44.20;;;17.10;;
60436;SDS011;46289;51.992;4.498;2023-02-21T02:04:31;45.63;;;17.85;;
60436;SDS011;46289;51.992;4.498;2023-02-21T02:06:52;47.88;;;17.95;;
60436;SDS011;46289;51.992;4.498;2023-02-21T02:09:13;43.10;;;18.13;;
60436;SDS011;46289;51.992;4.498;2023-02-21T02:11:41;44.47;;;18.20;;
60436;SDS011;46289;51.992;4.498;2023-02-21T02:14:15;43.97;;;16.65;;
60436;SDS011;46289;51.992;4.498;2023-02-21T02:16:32;41.28;;;14.95;;
60436;SDS011;46289;51.992;4.498;2023-02-21T02:18:52;46.50;;;17.35;;
60436;SDS011;46289;51.992;4.498;2023-02-21T02:21:28;45.45;;;18.98;;
60436;SDS011;46289;51.992;4.498;2023-02-21T02:24:21;48.83;;;17.48;;
60436;SDS011;46289;51.992;4.498;2023-02-21T02:26:51;42.75;;;16.35;;
60436;SDS011;46289;51.992;4.498;2023-02-21T02:32:11;42.65;;;17.75;;
60436;SDS011;46289;51.992;4.498;2023-02-21T02:34:41;43.22;;;18.95;;
60436;SDS011;46289;51.992;4.498;2023-02-21T02:36:58;48.17;;;18.83;;
60436;SDS011;46289;51.992;4.498;2023-02-21T02:39:14;47.75;;;18.25;;
60436;SDS011;46289;51.992;4.498;2023-02-21T02:41:27;55.38;;;19.33;;
60436;SDS011;46289;51.992;4.498;2023-02-21T02:43:49;45.60;;;17.45;;
60436;SDS011;46289;51.992;4.498;2023-02-21T02:45:59;48.63;;;19.73;;
60436;SDS011;46289;51.992;4.498;2023-02-21T02:48:12;43.87;;;18.27;;
60436;SDS011;46289;51.992;4.498;2023-02-21T02:50:26;51.75;;;20.80;;
60436;SDS011;46289;51.992;4.498;2023-02-21T02:52:33;46.55;;;20.27;;
60436;SDS011;46289;51.992;4.498;2023-02-21T02:54:39;54.70;;;20.63;;
60436;SDS011;46289;51.992;4.498;2023-02-21T02:56:47;54.65;;;22.13;;
60436;SDS011;46289;51.992;4.498;2023-02-21T02:58:53;45.67;;;20.83;;
60436;SDS011;46289;51.992;4.498;2023-02-21T03:01:06;52.97;;;21.13;;
60436;SDS011;46289;51.992;4.498;2023-02-21T03:03:28;51.05;;;21.85;;
60436;SDS011;46289;51.992;4.498;2023-02-21T03:05:53;55.63;;;22.23;;
60436;SDS011;46289;51.992;4.498;2023-02-21T03:08:13;47.05;;;19.73;;
60436;SDS011;46289;51.992;4.498;2023-02-21T03:10:34;58.28;;;24.73;;
60436;SDS011;46289;51.992;4.498;2023-02-21T03:12:44;50.58;;;19.20;;
60436;SDS011;46289;51.992;4.498;2023-02-21T03:14:56;51.33;;;20.75;;
60436;SDS011;46289;51.992;4.498;2023-02-21T03:17:07;46.83;;;20.47;;
60436;SDS011;46289;51.992;4.498;2023-02-21T03:19:19;50.80;;;19.70;;
60436;SDS011;46289;51.992;4.498;2023-02-21T03:21:33;49.50;;;21.17;;
60436;SDS011;46289;51.992;4.498;2023-02-21T03:23:50;56.10;;;22.30;;
60436;SDS011;46289;51.992;4.498;2023-02-21T03:25:58;50.78;;;22.60;;
60436;SDS011;46289;51.992;4.498;2023-02-21T03:28:07;56.67;;;22.23;;
60436;SDS011;46289;51.992;4.498;2023-02-21T03:30:13;61.15;;;22.83;;
60436;SDS011;46289;51.992;4.498;2023-02-21T03:32:20;49.30;;;20.58;;
60436;SDS011;46289;51.992;4.498;2023-02-21T03:34:25;53.38;;;21.77;;
60436;SDS011;46289;51.992;4.498;2023-02-21T03:36:33;56.20;;;22.27;;
60436;SDS011;46289;51.992;4.498;2023-02-21T03:38:42;49.95;;;20.70;;
60436;SDS011;46289;51.992;4.498;2023-02-21T03:40:48;56.55;;;23.38;;
60436;SDS011;46289;51.992;4.498;2023-02-21T03:42:54;50.38;;;20.88;;
60436;SDS011;46289;51.992;4.498;2023-02-21T03:45:00;51.53;;;22.23;;
60436;SDS011;46289;51.992;4.498;2023-02-21T03:47:05;59.88;;;22.55;;
60436;SDS011;46289;51.992;4.498;2023-02-21T03:49:10;59.03;;;22.50;;
60436;SDS011;46289;51.992;4.498;2023-02-21T03:51:16;55.42;;;22.10;;
60436;SDS011;46289;51.992;4.498;2023-02-21T03:53:24;53.72;;;22.17;;
60436;SDS011;46289;51.992;4.498;2023-02-21T03:55:29;51.55;;;20.65;;
60436;SDS011;46289;51.992;4.498;2023-02-21T03:57:34;57.15;;;22.13;;
60436;SDS011;46289;51.992;4.498;2023-02-21T03:59:40;56.55;;;21.83;;
60436;SDS011;46289;51.992;4.498;2023-02-21T04:01:48;50.22;;;20.38;;
60436;SDS011;46289;51.992;4.498;2023-02-21T04:03:53;57.80;;;23.23;;
60436;SDS011;46289;51.992;4.498;2023-02-21T04:06:01;54.95;;;22.67;;
60436;SDS011;46289;51.992;4.498;2023-02-21T04:08:07;57.25;;;21.77;;
60436;SDS011;46289;51.992;4.498;2023-02-21T04:10:15;57.47;;;22.60;;
60436;SDS011;46289;51.992;4.498;2023-02-21T04:12:20;51.03;;;21.80;;
60436;SDS011;46289;51.992;4.498;2023-02-21T04:14:25;57.72;;;22.33;;
60436;SDS011;46289;51.992;4.498;2023-02-21T04:16:31;53.28;;;21.15;;
60436;SDS011;46289;51.992;4.498;2023-02-21T04:18:36;63.47;;;24.25;;
60436;SDS011;46289;51.992;4.498;2023-02-21T04:20:41;58.17;;;23.50;;
60436;SDS011;46289;51.992;4.498;2023-02-21T04:22:50;53.33;;;22.02;;
60436;SDS011;46289;51.992;4.498;2023-02-21T04:25:04;52.88;;;22.25;;
60436;SDS011;46289;51.992;4.498;2023-02-21T04:27:13;59.00;;;22.10;;
60436;SDS011;46289;51.992;4.498;2023-02-21T04:29:18;52.50;;;21.55;;
60436;SDS011;46289;51.992;4.498;2023-02-21T04:31:23;58.65;;;23.05;;
60436;SDS011;46289;51.992;4.498;2023-02-21T04:33:29;60.08;;;24.42;;
60436;SDS011;46289;51.992;4.498;2023-02-21T04:35:34;56.97;;;21.98;;
60436;SDS011;46289;51.992;4.498;2023-02-21T04:37:40;60.92;;;23.50;;
60436;SDS011;46289;51.992;4.498;2023-02-21T04:39:46;57.13;;;21.92;;
60436;SDS011;46289;51.992;4.498;2023-02-21T04:41:51;56.60;;;24.75;;
60436;SDS011;46289;51.992;4.498;2023-02-21T04:43:59;51.42;;;22.05;;
60436;SDS011;46289;51.992;4.498;2023-02-21T04:46:04;55.40;;;21.52;;
60436;SDS011;46289;51.992;4.498;2023-02-21T04:48:16;55.80;;;22.45;;
60436;SDS011;46289;51.992;4.498;2023-02-21T04:50:24;55.67;;;22.27;;
60436;SDS011;46289;51.992;4.498;2023-02-21T04:52:30;53.33;;;22.45;;
60436;SDS011;46289;51.992;4.498;2023-02-21T04:54:36;52.67;;;21.60;;
60436;SDS011;46289;51.992;4.498;2023-02-21T04:56:41;52.00;;;20.40;;
60436;SDS011;46289;51.992;4.498;2023-02-21T04:58:48;53.20;;;23.27;;
60436;SDS011;46289;51.992;4.498;2023-02-21T05:00:59;58.25;;;23.67;;
60436;SDS011;46289;51.992;4.498;2023-02-21T05:03:04;53.90;;;23.30;;
60436;SDS011;46289;51.992;4.498;2023-02-21T05:05:09;49.97;;;19.42;;
60436;SDS011;46289;51.992;4.498;2023-02-21T05:07:14;55.22;;;23.38;;
60436;SDS011;46289;51.992;4.498;2023-02-21T05:09:19;56.75;;;22.25;;
60436;SDS011;46289;51.992;4.498;2023-02-21T05:11:25;55.28;;;24.70;;
60436;SDS011;46289;51.992;4.498;2023-02-21T05:13:31;53.92;;;21.00;;
60436;SDS011;46289;51.992;4.498;2023-02-21T05:15:36;53.38;;;23.08;;
60436;SDS011;46289;51.992;4.498;2023-02-21T05:17:43;54.72;;;22.52;;
60436;SDS011;46289;51.992;4.498;2023-02-21T05:19:51;53.50;;;22.80;;
60436;SDS011;46289;51.992;4.498;2023-02-21T05:21:56;54.72;;;22.60;;
60436;SDS011;46289;51.992;4.498;2023-02-21T05:24:03;51.05;;;22.23;;
60436;SDS011;46289;51.992;4.498;2023-02-21T05:26:10;56.67;;;22.92;;
60436;SDS011;46289;51.992;4.498;2023-02-21T05:28:16;56.53;;;21.92;;
60436;SDS011;46289;51.992;4.498;2023-02-21T05:30:23;50.30;;;21.02;;
60436;SDS011;46289;51.992;4.498;2023-02-21T05:32:29;54.85;;;22.77;;
60436;SDS011;46289;51.992;4.498;2023-02-21T05:34:37;58.00;;;23.75;;
60436;SDS011;46289;51.992;4.498;2023-02-21T05:36:47;50.17;;;21.55;;
60436;SDS011;46289;51.992;4.498;2023-02-21T05:38:53;57.63;;;23.25;;
60436;SDS011;46289;51.992;4.498;2023-02-21T05:41:01;55.97;;;21.95;;
60436;SDS011;46289;51.992;4.498;2023-02-21T05:43:06;54.97;;;23.08;;
60436;SDS011;46289;51.992;4.498;2023-02-21T05:45:10;54.22;;;22.23;;
60436;SDS011;46289;51.992;4.498;2023-02-21T05:47:16;58.33;;;23.98;;
60436;SDS011;46289;51.992;4.498;2023-02-21T05:49:21;56.88;;;23.75;;
60436;SDS011;46289;51.992;4.498;2023-02-21T05:51:35;52.05;;;22.88;;
60436;SDS011;46289;51.992;4.498;2023-02-21T05:53:42;55.38;;;21.67;;
60436;SDS011;46289;51.992;4.498;2023-02-21T05:55:47;50.53;;;20.90;;
60436;SDS011;46289;51.992;4.498;2023-02-21T05:57:52;55.17;;;21.83;;
60436;SDS011;46289;51.992;4.498;2023-02-21T05:59:59;54.92;;;22.30;;
60436;SDS011;46289;51.992;4.498;2023-02-21T06:02:04;58.80;;;25.00;;
60436;SDS011;46289;51.992;4.498;2023-02-21T06:04:09;56.17;;;24.10;;
60436;SDS011;46289;51.992;4.498;2023-02-21T06:06:14;57.30;;;24.70;;
60436;SDS011;46289;51.992;4.498;2023-02-21T06:08:24;54.42;;;22.30;;
60436;SDS011;46289;51.992;4.498;2023-02-21T06:10:30;55.42;;;23.80;;
60436;SDS011;46289;51.992;4.498;2023-02-21T06:12:35;54.80;;;22.40;;
60436;SDS011;46289;51.992;4.498;2023-02-21T06:14:43;57.33;;;21.70;;
60436;SDS011;46289;51.992;4.498;2023-02-21T06:16:48;56.60;;;22.27;;
60436;SDS011;46289;51.992;4.498;2023-02-21T06:18:53;56.72;;;22.45;;
60436;SDS011;46289;51.992;4.498;2023-02-21T06:21:00;55.85;;;25.42;;
60436;SDS011;46289;51.992;4.498;2023-02-21T06:23:05;54.70;;;21.75;;
60436;SDS011;46289;51.992;4.498;2023-02-21T06:25:13;55.67;;;23.48;;
60436;SDS011;46289;51.992;4.498;2023-02-21T06:27:18;56.13;;;22.75;;
60436;SDS011;46289;51.992;4.498;2023-02-21T06:29:23;52.47;;;21.50;;
60436;SDS011;46289;51.992;4.498;2023-02-21T06:31:29;56.72;;;23.80;;
60436;SDS011;46289;51.992;4.498;2023-02-21T06:33:34;50.20;;;22.88;;
60436;SDS011;46289;51.992;4.498;2023-02-21T06:35:39;62.65;;;23.77;;
60436;SDS011;46289;51.992;4.498;2023-02-21T06:37:47;58.25;;;23.13;;
60436;SDS011;46289;51.992;4.498;2023-02-21T06:39:52;64.68;;;23.83;;
60436;SDS011;46289;51.992;4.498;2023-02-21T06:41:59;54.72;;;21.90;;
60436;SDS011;46289;51.992;4.498;2023-02-21T06:44:04;58.83;;;24.35;;
60436;SDS011;46289;51.992;4.498;2023-02-21T06:46:09;58.03;;;23.35;;
60436;SDS011;46289;51.992;4.498;2023-02-21T06:48:21;56.00;;;22.95;;
60436;SDS011;46289;51.992;4.498;2023-02-21T06:50:26;54.17;;;22.35;;
60436;SDS011;46289;51.992;4.498;2023-02-21T06:52:34;56.40;;;22.67;;
60436;SDS011;46289;51.992;4.498;2023-02-21T06:54:39;62.05;;;22.88;;
60436;SDS011;46289;51.992;4.498;2023-02-21T06:56:45;58.72;;;22.90;;
60436;SDS011;46289;51.992;4.498;2023-02-21T06:58:55;58.90;;;24.13;;
60436;SDS011;46289;51.992;4.498;2023-02-21T07:01:01;59.00;;;23.33;;
60436;SDS011;46289;51.992;4.498;2023-02-21T07:03:09;51.05;;;21.00;;
60436;SDS011;46289;51.992;4.498;2023-02-21T07:05:16;56.63;;;24.77;;
60436;SDS011;46289;51.992;4.498;2023-02-21T07:07:22;56.03;;;23.40;;
60436;SDS011;46289;51.992;4.498;2023-02-21T07:09:27;58.83;;;23.80;;
60436;SDS011;46289;51.992;4.498;2023-02-21T07:11:32;58.70;;;22.60;;
60436;SDS011;46289;51.992;4.498;2023-02-21T07:13:39;53.80;;;22.00;;
60436;SDS011;46289;51.992;4.498;2023-02-21T07:15:49;53.88;;;21.65;;
60436;SDS011;46289;51.992;4.498;2023-02-21T07:17:54;55.38;;;23.08;;
60436;SDS011;46289;51.992;4.498;2023-02-21T07:20:00;53.67;;;21.77;;
60436;SDS011;46289;51.992;4.498;2023-02-21T07:22:05;54.72;;;22.80;;
60436;SDS011;46289;51.992;4.498;2023-02-21T07:24:11;60.70;;;23.83;;
60436;SDS011;46289;51.992;4.498;2023-02-21T07:26:16;52.70;;;21.63;;
60436;SDS011;46289;51.992;4.498;2023-02-21T07:28:22;49.55;;;23.83;;
60436;SDS011;46289;51.992;4.498;2023-02-21T07:30:27;54.28;;;22.40;;
60436;SDS011;46289;51.992;4.498;2023-02-21T07:32:35;57.05;;;22.02;;
60436;SDS011;46289;51.992;4.498;2023-02-21T07:34:40;51.63;;;22.55;;
60436;SDS011;46289;51.992;4.498;2023-02-21T07:36:48;50.92;;;21.98;;
60436;SDS011;46289;51.992;4.498;2023-02-21T07:38:53;53.95;;;22.83;;
60436;SDS011;46289;51.992;4.498;2023-02-21T07:40:59;56.58;;;23.55;;
60436;SDS011;46289;51.992;4.498;2023-02-21T07:43:05;58.08;;;23.10;;
60436;SDS011;46289;51.992;4.498;2023-02-21T07:45:11;53.35;;;21.00;;
60436;SDS011;46289;51.992;4.498;2023-02-21T07:47:17;52.70;;;21.60;;
60436;SDS011;46289;51.992;4.498;2023-02-21T07:49:24;53.55;;;22.38;;
60436;SDS011;46289;51.992;4.498;2023-02-21T07:51:30;51.05;;;21.70;;
60436;SDS011;46289;51.992;4.498;2023-02-21T07:53:38;59.35;;;24.98;;
60436;SDS011;46289;51.992;4.498;2023-02-21T07:55:44;57.47;;;22.55;;
60436;SDS011;46289;51.992;4.498;2023-02-21T07:57:52;49.40;;;20.33;;
60436;SDS011;46289;51.992;4.498;2023-02-21T07:59:57;53.67;;;21.33;;
60436;SDS011;46289;51.992;4.498;2023-02-21T08:02:08;52.38;;;21.35;;
60436;SDS011;46289;51.992;4.498;2023-02-21T08:04:16;51.78;;;19.33;;
60436;SDS011;46289;51.992;4.498;2023-02-21T08:06:24;50.42;;;20.42;;
60436;SDS011;46289;51.992;4.498;2023-02-21T08:08:30;52.10;;;20.50;;
60436;SDS011;46289;51.992;4.498;2023-02-21T08:10:35;47.10;;;19.58;;
60436;SDS011;46289;51.992;4.498;2023-02-21T08:12:43;56.28;;;22.35;;
60436;SDS011;46289;51.992;4.498;2023-02-21T08:14:52;60.83;;;22.75;;
60436;SDS011;46289;51.992;4.498;2023-02-21T08:16:59;47.08;;;21.23;;
60436;SDS011;46289;51.992;4.498;2023-02-21T08:19:03;53.22;;;23.10;;
60436;SDS011;46289;51.992;4.498;2023-02-21T08:21:09;49.53;;;20.95;;
60436;SDS011;46289;51.992;4.498;2023-02-21T08:23:19;42.85;;;21.35;;
60436;SDS011;46289;51.992;4.498;2023-02-21T08:25:24;53.22;;;21.83;;
60436;SDS011;46289;51.992;4.498;2023-02-21T08:27:29;55.00;;;22.00;;
60436;SDS011;46289;51.992;4.498;2023-02-21T08:29:34;49.85;;;19.10;;
60436;SDS011;46289;51.992;4.498;2023-02-21T08:31:41;49.40;;;21.45;;
60436;SDS011;46289;51.992;4.498;2023-02-21T08:33:49;50.67;;;20.85;;
60436;SDS011;46289;51.992;4.498;2023-02-21T08:35:54;51.13;;;20.08;;
60436;SDS011;46289;51.992;4.498;2023-02-21T08:37:59;56.42;;;21.75;;
60436;SDS011;46289;51.992;4.498;2023-02-21T08:40:09;47.83;;;18.77;;
60436;SDS011;46289;51.992;4.498;2023-02-21T08:42:15;47.28;;;21.48;;
60436;SDS011;46289;51.992;4.498;2023-02-21T08:44:20;54.88;;;22.15;;
60436;SDS011;46289;51.992;4.498;2023-02-21T08:46:25;48.55;;;20.98;;
60436;SDS011;46289;51.992;4.498;2023-02-21T08:48:30;52.60;;;22.48;;
60436;SDS011;46289;51.992;4.498;2023-02-21T08:50:35;48.53;;;21.42;;
60436;SDS011;46289;51.992;4.498;2023-02-21T08:52:40;50.08;;;19.42;;
60436;SDS011;46289;51.992;4.498;2023-02-21T08:54:48;61.08;;;22.05;;
60436;SDS011;46289;51.992;4.498;2023-02-21T08:56:56;55.58;;;22.38;;
60436;SDS011;46289;51.992;4.498;2023-02-21T08:59:01;49.08;;;20.67;;
60436;SDS011;46289;51.992;4.498;2023-02-21T09:01:09;47.25;;;20.23;;
60436;SDS011;46289;51.992;4.498;2023-02-21T09:03:15;54.90;;;21.77;;
60436;SDS011;46289;51.992;4.498;2023-02-21T09:05:20;58.60;;;22.40;;
60436;SDS011;46289;51.992;4.498;2023-02-21T09:07:27;53.17;;;19.52;;
60436;SDS011;46289;51.992;4.498;2023-02-21T09:09:36;62.92;;;23.02;;
60436;SDS011;46289;51.992;4.498;2023-02-21T09:11:43;57.90;;;22.88;;
60436;SDS011;46289;51.992;4.498;2023-02-21T09:13:52;49.85;;;22.08;;
60436;SDS011;46289;51.992;4.498;2023-02-21T09:15:58;56.50;;;22.38;;
60436;SDS011;46289;51.992;4.498;2023-02-21T09:18:05;50.85;;;21.35;;
60436;SDS011;46289;51.992;4.498;2023-02-21T09:20:11;53.95;;;19.52;;
60436;SDS011;46289;51.992;4.498;2023-02-21T09:22:19;46.05;;;20.63;;
60436;SDS011;46289;51.992;4.498;2023-02-21T09:24:25;51.20;;;20.08;;
60436;SDS011;46289;51.992;4.498;2023-02-21T09:26:31;48.75;;;19.77;;
60436;SDS011;46289;51.992;4.498;2023-02-21T09:28:36;48.83;;;20.15;;
60436;SDS011;46289;51.992;4.498;2023-02-21T09:30:49;59.33;;;20.38;;
60436;SDS011;46289;51.992;4.498;2023-02-21T09:32:55;57.55;;;21.67;;
60436;SDS011;46289;51.992;4.498;2023-02-21T09:35:00;54.35;;;21.75;;
60436;SDS011;46289;51.992;4.498;2023-02-21T09:37:06;57.47;;;20.52;;
60436;SDS011;46289;51.992;4.498;2023-02-21T09:39:12;58.17;;;21.42;;
60436;SDS011;46289;51.992;4.498;2023-02-21T09:41:17;57.45;;;22.15;;
60436;SDS011;46289;51.992;4.498;2023-02-21T09:43:25;50.83;;;20.40;;
60436;SDS011;46289;51.992;4.498;2023-02-21T09:45:35;53.10;;;20.52;;
60436;SDS011;46289;51.992;4.498;2023-02-21T09:47:45;56.95;;;22.17;;
60436;SDS011;46289;51.992;4.498;2023-02-21T09:49:59;46.05;;;19.70;;
60436;SDS011;46289;51.992;4.498;2023-02-21T09:52:17;53.10;;;22.05;;
60436;SDS011;46289;51.992;4.498;2023-02-21T09:54:32;57.35;;;21.65;;
60436;SDS011;46289;51.992;4.498;2023-02-21T09:56:39;52.10;;;20.17;;
60436;SDS011;46289;51.992;4.498;2023-02-21T09:58:47;60.47;;;22.30;;
60436;SDS011;46289;51.992;4.498;2023-02-21T10:00:53;62.63;;;22.75;;
60436;SDS011;46289;51.992;4.498;2023-02-21T10:03:07;53.88;;;21.35;;
60436;SDS011;46289;51.992;4.498;2023-02-21T10:05:26;63.28;;;22.27;;
60436;SDS011;46289;51.992;4.498;2023-02-21T10:07:42;58.38;;;21.30;;
60436;SDS011;46289;51.992;4.498;2023-02-21T10:10:03;53.90;;;21.45;;
60436;SDS011;46289;51.992;4.498;2023-02-21T10:12:17;52.03;;;19.87;;
60436;SDS011;46289;51.992;4.498;2023-02-21T10:14:30;50.80;;;19.73;;
60436;SDS011;46289;51.992;4.498;2023-02-21T10:16:46;56.17;;;19.17;;
60436;SDS011;46289;51.992;4.498;2023-02-21T10:19:06;51.50;;;19.40;;
60436;SDS011;46289;51.992;4.498;2023-02-21T10:21:24;57.97;;;22.10;;
60436;SDS011;46289;51.992;4.498;2023-02-21T10:23:35;49.45;;;20.90;;
60436;SDS011;46289;51.992;4.498;2023-02-21T10:25:47;52.70;;;18.27;;
60436;SDS011;46289;51.992;4.498;2023-02-21T10:27:56;51.45;;;19.15;;
60436;SDS011;46289;51.992;4.498;2023-02-21T10:30:03;53.25;;;20.52;;
60436;SDS011;46289;51.992;4.498;2023-02-21T10:32:11;50.10;;;19.38;;
60436;SDS011;46289;51.992;4.498;2023-02-21T10:34:21;50.33;;;18.90;;
60436;SDS011;46289;51.992;4.498;2023-02-21T10:36:29;58.42;;;20.45;;
60436;SDS011;46289;51.992;4.498;2023-02-21T10:38:34;57.50;;;18.65;;
60436;SDS011;46289;51.992;4.498;2023-02-21T10:40:40;51.35;;;19.58;;
60436;SDS011;46289;51.992;4.498;2023-02-21T10:42:49;50.35;;;19.13;;
60436;SDS011;46289;51.992;4.498;2023-02-21T10:45:00;48.95;;;19.77;;
60436;SDS011;46289;51.992;4.498;2023-02-21T10:47:12;56.70;;;21.00;;
60436;SDS011;46289;51.992;4.498;2023-02-21T10:49:27;54.38;;;19.98;;
60436;SDS011;46289;51.992;4.498;2023-02-21T10:51:36;52.60;;;18.88;;
60436;SDS011;46289;51.992;4.498;2023-02-21T10:53:42;44.67;;;17.95;;
60436;SDS011;46289;51.992;4.498;2023-02-21T10:58:39;49.60;;;19.40;;
60436;SDS011;46289;51.992;4.498;2023-02-21T11:00:49;48.58;;;18.65;;
60436;SDS011;46289;51.992;4.498;2023-02-21T11:02:55;50.50;;;17.55;;
60436;SDS011;46289;51.992;4.498;2023-02-21T11:05:16;46.65;;;17.05;;
60436;SDS011;46289;51.992;4.498;2023-02-21T11:07:24;41.40;;;15.20;;
60436;SDS011;46289;51.992;4.498;2023-02-21T11:09:34;45.13;;;17.48;;
60436;SDS011;46289;51.992;4.498;2023-02-21T11:11:42;41.13;;;15.88;;
60436;SDS011;46289;51.992;4.498;2023-02-21T11:13:47;43.65;;;16.85;;
60436;SDS011;46289;51.992;4.498;2023-02-21T11:15:53;43.90;;;17.13;;
60436;SDS011;46289;51.992;4.498;2023-02-21T11:18:18;38.10;;;16.37;;
60436;SDS011;46289;51.992;4.498;2023-02-21T11:20:30;31.08;;;12.27;;
60436;SDS011;46289;51.992;4.498;2023-02-21T11:22:35;31.58;;;11.60;;
60436;SDS011;46289;51.992;4.498;2023-02-21T11:27:07;30.05;;;11.75;;
60436;SDS011;46289;51.992;4.498;2023-02-21T11:29:13;35.75;;;12.27;;
60436;SDS011;46289;51.992;4.498;2023-02-21T11:31:21;35.05;;;13.80;;
60436;SDS011;46289;51.992;4.498;2023-02-21T11:33:31;35.10;;;14.88;;
60436;SDS011;46289;51.992;4.498;2023-02-21T11:35:50;35.28;;;13.98;;
60436;SDS011;46289;51.992;4.498;2023-02-21T11:38:00;35.80;;;14.73;;
60436;SDS011;46289;51.992;4.498;2023-02-21T11:40:09;34.30;;;15.13;;
60436;SDS011;46289;51.992;4.498;2023-02-21T11:42:27;31.13;;;12.52;;
60436;SDS011;46289;51.992;4.498;2023-02-21T11:44:36;34.13;;;13.43;;
60436;SDS011;46289;51.992;4.498;2023-02-21T11:46:47;32.03;;;15.20;;
60436;SDS011;46289;51.992;4.498;2023-02-21T11:48:57;32.00;;;13.93;;
60436;SDS011;46289;51.992;4.498;2023-02-21T11:51:12;30.02;;;14.40;;
60436;SDS011;46289;51.992;4.498;2023-02-21T11:53:28;28.02;;;11.70;;
60436;SDS011;46289;51.992;4.498;2023-02-21T11:55:39;32.83;;;13.25;;
60436;SDS011;46289;51.992;4.498;2023-02-21T11:57:54;32.67;;;13.20;;
60436;SDS011;46289;51.992;4.498;2023-02-21T12:00:13;28.35;;;11.38;;
60436;SDS011;46289;51.992;4.498;2023-02-21T12:05:17;25.95;;;11.18;;
60436;SDS011;46289;51.992;4.498;2023-02-21T12:07:36;25.02;;;11.48;;
60436;SDS011;46289;51.992;4.498;2023-02-21T12:09:52;28.65;;;11.63;;
60436;SDS011;46289;51.992;4.498;2023-02-21T12:12:05;33.90;;;12.82;;
60436;SDS011;46289;51.992;4.498;2023-02-21T12:14:26;29.73;;;12.70;;
60436;SDS011;46289;51.992;4.498;2023-02-21T12:16:42;27.80;;;11.95;;
60436;SDS011;46289;51.992;4.498;2023-02-21T12:19:02;33.20;;;13.88;;
60436;SDS011;46289;51.992;4.498;2023-02-21T12:21:34;32.60;;;13.82;;
60436;SDS011;46289;51.992;4.498;2023-02-21T12:23:54;33.77;;;13.13;;
60436;SDS011;46289;51.992;4.498;2023-02-21T12:26:15;34.95;;;14.13;;
60436;SDS011;46289;51.992;4.498;2023-02-21T12:28:33;28.23;;;11.93;;
60436;SDS011;46289;51.992;4.498;2023-02-21T12:31:02;35.13;;;13.43;;
60436;SDS011;46289;51.992;4.498;2023-02-21T12:33:25;26.00;;;9.85;;
60436;SDS011;46289;51.992;4.498;2023-02-21T12:35:52;31.35;;;12.48;;
60436;SDS011;46289;51.992;4.498;2023-02-21T12:38:19;28.15;;;12.50;;
60436;SDS011;46289;51.992;4.498;2023-02-21T12:40:37;30.10;;;13.00;;
60436;SDS011;46289;51.992;4.498;2023-02-21T12:42:56;29.33;;;12.77;;
60436;SDS011;46289;51.992;4.498;2023-02-21T12:45:20;34.28;;;13.10;;
60436;SDS011;46289;51.992;4.498;2023-02-21T12:47:41;36.90;;;17.05;;
60436;SDS011;46289;51.992;4.498;2023-02-21T12:49:56;40.65;;;15.90;;
60436;SDS011;46289;51.992;4.498;2023-02-21T12:52:08;40.15;;;17.65;;
60436;SDS011;46289;51.992;4.498;2023-02-21T12:54:21;38.20;;;16.75;;
60436;SDS011;46289;51.992;4.498;2023-02-21T12:56:43;41.15;;;18.58;;
60436;SDS011;46289;51.992;4.498;2023-02-21T12:58:54;48.83;;;21.08;;
60436;SDS011;46289;51.992;4.498;2023-02-21T13:01:04;42.10;;;18.92;;